Kingstree, SC

9:47 PM EST on December 08, 2019 (GMT -0500)
Williamsburg County

Weather History for KCKI - October, 2019

Change the Weather History Date:

Friday, October 18, 2019

  Actual Average Record
Temperature  
Mean Temperature 55 °F -  
Max Temperature 69 °F 76 °F 84 °F (2014)
Min Temperature 41 °F 48 °F 39 °F (2017)
Degree Days  
Heating Degree Days 10    
Growing Degree Days 5 (Base 50)    
Moisture  
Dew Point 41 °F    
Average Humidity 68    
Maximum Humidity 100    
Minimum Humidity 27    
Precipitation  
Precipitation 0.00 in - - ()
Sea Level Pressure  
Sea Level Pressure 30.01 in    
Wind  
Wind Speed 0 mph ()    
Max Wind Speed 7 mph    
Max Gust Speed -    
Visibility 8.4 miles    
Events      
Averages and records for this station are not official NWS values.
T = Trace of Precipitation, MM = Missing Value Source: Averaged Metar Reports

Daily Weather History Graph

Daily Weather History Graph

Search for Another Location

Airport or City:

Astronomy

Oct. 18, 2019 Rise Set
Actual Time 7:26 AM EDT 6:42 PM EDT
Civil Twilight 7:01 AM EDT 7:07 PM EDT
Nautical Twilight 6:32 AM EDT 7:36 PM EDT
Astronomical Twilight 6:03 AM EDT 8:05 PM EDT
Moon 10:08 PM EDT (10/18) 11:47 AM EDT (10/18)
Length of Visible Light 12h 06m
Length of Day
11h 15m
Waning Gibbous, 79% of the Moon is Illuminated
Oct 18
Waning Gibbous
Oct 21
Last Quarter
Oct 27
New
Nov 4
First Quarter
Nov 12
Full

Hourly Weather History & Observations

Time (EDT) Temp. Dew Point Humidity Pressure Visibility Wind Dir Wind Speed Gust Speed Precip Events Conditions
12:15 AM 44.6 °F 44.6 °F 100% 29.94 in 7.0 mi Calm Calm - N/A   Clear
12:35 AM 44.6 °F 44.6 °F 100% 29.94 in 7.0 mi Calm Calm - N/A   Clear
12:55 AM 44.6 °F 42.8 °F 93% 29.94 in 7.0 mi Calm Calm - N/A   Clear
1:15 AM 42.8 °F 41.0 °F 93% 29.95 in 7.0 mi Calm Calm - N/A   Clear
1:35 AM 42.8 °F 41.0 °F 93% 29.96 in 7.0 mi Calm Calm - N/A   Clear
1:55 AM 42.8 °F 41.0 °F 93% 29.96 in 7.0 mi Calm Calm - N/A   Clear
2:15 AM 42.8 °F 41.0 °F 93% 29.97 in 7.0 mi Calm Calm - N/A   Clear
2:35 AM 42.8 °F 41.0 °F 93% 29.97 in 7.0 mi Calm Calm - N/A   Clear
2:55 AM 42.8 °F 41.0 °F 93% 29.97 in 7.0 mi Calm Calm - N/A   Clear
3:15 AM 42.8 °F 41.0 °F 93% 29.98 in 7.0 mi Calm Calm - N/A   Clear
3:35 AM 42.8 °F 41.0 °F 93% 29.98 in 7.0 mi Calm Calm - N/A   Clear
3:55 AM 42.8 °F 41.0 °F 93% 29.98 in 7.0 mi Calm Calm - N/A   Clear
4:15 AM 42.8 °F 41.0 °F 93% 29.98 in 10.0 mi Calm Calm - N/A   Clear
4:35 AM 42.8 °F 41.0 °F 93% 29.98 in 7.0 mi Calm Calm - N/A   Clear
4:55 AM 41.0 °F 41.0 °F 100% 29.99 in 10.0 mi Calm Calm - N/A   Clear
5:15 AM 42.8 °F 41.0 °F 93% 29.99 in 7.0 mi Calm Calm - N/A   Clear
5:35 AM 46.4 °F 41.0 °F 81% 30.00 in 7.0 mi Calm Calm - N/A   Clear
5:55 AM 50.0 °F 39.2 °F 66% 30.01 in 7.0 mi Calm Calm - N/A   Clear
6:15 AM 50.0 °F 37.4 °F 62% 30.01 in 7.0 mi Calm Calm - N/A   Clear
6:35 AM 48.2 °F 37.4 °F 66% 30.01 in 7.0 mi Calm Calm - N/A   Clear
6:55 AM 46.4 °F 39.2 °F 76% 30.01 in 7.0 mi Calm Calm - N/A   Clear
7:15 AM 46.4 °F 41.0 °F 81% 30.01 in 7.0 mi Calm Calm - N/A   Clear
7:35 AM 44.6 °F 41.0 °F 87% 30.02 in 7.0 mi Calm Calm - N/A   Clear
7:55 AM 44.6 °F 42.8 °F 93% 30.02 in 7.0 mi Calm Calm - N/A   Clear
8:15 AM 48.2 °F 41.0 °F 76% 30.02 in 5.0 mi Calm Calm - N/A   Haze
8:35 AM 50.0 °F 41.0 °F 71% 30.03 in 7.0 mi Calm Calm - N/A   Clear
8:55 AM 51.8 °F 39.2 °F 62% 30.04 in 7.0 mi Calm Calm - N/A   Clear
9:15 AM 53.6 °F 37.4 °F 54% 30.04 in 7.0 mi Calm Calm - N/A   Scattered Clouds
9:35 AM 55.4 °F 39.2 °F 54% 30.04 in 7.0 mi Calm Calm - N/A   Scattered Clouds
9:55 AM 57.2 °F 39.2 °F 51% 30.05 in 7.0 mi Calm Calm - N/A   Clear
10:15 AM 59.0 °F 39.2 °F 48% 30.05 in 7.0 mi North 4.6 mph - N/A   Clear
10:35 AM 59.0 °F 35.6 °F 42% 30.06 in 10.0 mi NNE 6.9 mph - N/A   Clear
10:55 AM 60.8 °F 35.6 °F 39% 30.06 in 10.0 mi Calm Calm - N/A   Clear
11:15 AM 60.8 °F 35.6 °F 39% 30.06 in 7.0 mi NNE 3.5 mph - N/A   Clear
11:35 AM 62.6 °F 35.6 °F 37% 30.06 in 7.0 mi NE 5.8 mph - N/A   Clear
11:55 AM 62.6 °F 35.6 °F 37% 30.06 in 10.0 mi Calm Calm - N/A   Clear
12:15 PM 62.6 °F 35.6 °F 37% 30.05 in 10.0 mi Calm Calm - N/A   Clear
12:35 PM 64.4 °F 35.6 °F 34% 30.05 in 10.0 mi Calm Calm - N/A   Clear
12:55 PM 64.4 °F 35.6 °F 34% 30.04 in 10.0 mi Calm Calm - N/A   Clear
1:15 PM 66.2 °F 35.6 °F 32% 30.04 in 10.0 mi Calm Calm - N/A   Clear
1:35 PM 68.0 °F 33.8 °F 28% 30.03 in 10.0 mi Calm Calm - N/A   Clear
1:55 PM 68.0 °F 35.6 °F 30% 30.03 in 7.0 mi Calm Calm - N/A   Clear
2:15 PM 68.0 °F 35.6 °F 30% 30.01 in 10.0 mi NW 4.6 mph - N/A   Clear
2:35 PM 68.0 °F 33.8 °F 28% 30.01 in 7.0 mi NNW 3.5 mph - N/A   Clear
2:55 PM 68.0 °F 33.8 °F 28% 30.01 in 10.0 mi Calm Calm - N/A   Clear
3:15 PM 68.0 °F 33.8 °F 28% 30.01 in 10.0 mi Calm Calm - N/A   Clear
3:35 PM 68.0 °F 33.8 °F 28% 30.00 in 10.0 mi Calm Calm - N/A   Clear
3:55 PM 69.8 °F 33.8 °F 27% 30.00 in 10.0 mi Calm Calm - N/A   Clear
4:15 PM 69.8 °F 33.8 °F 27% 30.00 in 10.0 mi Calm Calm - N/A   Clear
4:35 PM 68.0 °F 33.8 °F 28% 30.00 in 10.0 mi Calm Calm - N/A   Clear
4:55 PM 68.0 °F 33.8 °F 28% 30.01 in 10.0 mi Calm Calm - N/A   Clear
5:15 PM 68.0 °F 37.4 °F 33% 30.01 in 10.0 mi Calm Calm - N/A   Clear
5:35 PM 64.4 °F 46.4 °F 52% 30.01 in 10.0 mi Calm Calm - N/A   Clear
5:55 PM 62.6 °F 46.4 °F 55% 30.01 in 10.0 mi Calm Calm - N/A   Clear
6:15 PM 60.8 °F 44.6 °F 55% 30.01 in 7.0 mi Calm Calm - N/A   Clear
6:35 PM 59.0 °F 44.6 °F 59% 30.01 in 10.0 mi Calm Calm - N/A   Clear
6:55 PM 57.2 °F 46.4 °F 67% 30.01 in 10.0 mi Calm Calm - N/A   Clear
7:15 PM 55.4 °F 50.0 °F 82% 30.02 in 10.0 mi Calm Calm - N/A   Clear
7:35 PM 55.4 °F 51.8 °F 88% 30.03 in 10.0 mi Calm Calm - N/A   Clear
7:55 PM 53.6 °F 51.8 °F 94% 30.03 in 10.0 mi Calm Calm - N/A   Clear
8:15 PM 53.6 °F 51.8 °F 94% 30.03 in 10.0 mi Calm Calm - N/A   Clear
8:35 PM 51.8 °F 50.0 °F 94% 30.03 in 10.0 mi Calm Calm - N/A   Clear
8:55 PM 51.8 °F 50.0 °F 94% 30.03 in 10.0 mi Calm Calm - N/A   Clear
9:15 PM 51.8 °F 50.0 °F 94% 30.03 in 10.0 mi Calm Calm - N/A   Clear
9:35 PM 51.8 °F 50.0 °F 94% 30.04 in 10.0 mi Calm Calm - N/A   Clear
9:55 PM 51.8 °F 50.0 °F 94% 30.03 in 10.0 mi Calm Calm - N/A   Clear
10:15 PM 50.0 °F 48.2 °F 94% 30.04 in 7.0 mi Calm Calm - N/A   Clear
10:35 PM 50.0 °F 48.2 °F 94% 30.04 in 10.0 mi Calm Calm - N/A   Clear
10:55 PM 50.0 °F 46.4 °F 87% 30.04 in 10.0 mi Calm Calm - N/A   Clear
11:15 PM 48.2 °F 46.4 °F 93% 30.04 in 7.0 mi Calm Calm - N/A   Clear
11:35 PM 48.2 °F 46.4 °F 93% 30.04 in 7.0 mi Calm Calm - N/A   Clear
11:55 PM 48.2 °F 46.4 °F 93% 30.04 in 7.0 mi Calm Calm - N/A   Clear